createdAt,value
2017-04-04T00:02:00.370Z,1018.06
2017-04-04T00:12:00.337Z,1017.97
2017-04-04T00:22:00.292Z,1017.88
2017-04-04T00:32:00.359Z,1017.89
2017-04-04T00:42:00.333Z,1017.85
2017-04-04T00:52:00.284Z,1017.69
2017-04-04T01:02:00.349Z,1017.68
2017-04-04T01:12:00.297Z,1017.59
2017-04-04T01:22:00.375Z,1017.51
2017-04-04T01:32:00.330Z,1017.56
2017-04-04T01:42:00.282Z,1017.4
2017-04-04T01:52:00.356Z,1017.35
2017-04-04T02:02:00.320Z,1017.3
2017-04-04T02:12:00.276Z,1017.26
2017-04-04T02:22:00.331Z,1017.25
2017-04-04T02:32:00.293Z,1017.26
2017-04-04T02:42:00.254Z,1017.15
2017-04-04T02:52:00.333Z,1017.18
2017-04-04T03:02:00.283Z,1017.11
2017-04-04T03:12:00.343Z,1017.04
2017-04-04T03:22:00.309Z,1017.02
2017-04-04T03:32:00.270Z,1016.86
2017-04-04T03:42:00.328Z,1016.81
2017-04-04T03:52:01.307Z,1016.99
2017-04-04T04:02:00.244Z,1016.87
2017-04-04T04:12:00.308Z,1016.85
2017-04-04T04:22:00.267Z,1016.8
2017-04-04T04:32:00.274Z,1016.88
2017-04-04T04:42:00.296Z,1016.9
2017-04-04T04:52:00.283Z,1016.93
2017-04-04T05:02:00.226Z,1016.97
2017-04-04T05:12:00.292Z,1017.03
2017-04-04T05:22:00.195Z,1017.12
2017-04-04T05:32:00.200Z,1017.24
2017-04-04T05:42:00.192Z,1017.27
2017-04-04T05:52:00.192Z,1017.28
2017-04-04T06:02:00.191Z,1017.3
2017-04-04T06:12:00.194Z,1017.24
2017-04-04T06:22:00.198Z,1017.3
2017-04-04T06:32:00.190Z,1017.32
2017-04-04T06:42:00.185Z,1017.39
2017-04-04T06:52:00.183Z,1017.44
2017-04-04T07:02:00.176Z,1017.53
2017-04-04T07:12:00.182Z,1017.47
2017-04-04T07:22:00.181Z,1017.55
2017-04-04T07:32:00.179Z,1017.48
2017-04-04T07:42:00.182Z,1017.59
2017-04-04T07:52:00.180Z,1017.61
2017-04-04T08:02:00.178Z,1017.66
2017-04-04T08:12:00.183Z,1017.7
2017-04-04T08:22:00.172Z,1017.74
2017-04-04T08:32:00.165Z,1017.81
2017-04-04T08:42:00.170Z,1017.81
2017-04-04T08:52:00.174Z,1017.87
2017-04-04T09:02:00.169Z,1017.9
2017-04-04T09:12:00.163Z,1017.87
2017-04-04T09:22:00.193Z,1017.94
2017-04-04T09:32:00.168Z,1017.92
2017-04-04T09:42:00.165Z,1017.8
2017-04-04T09:52:00.174Z,1017.76
2017-04-04T10:02:00.172Z,1017.59
2017-04-04T10:12:00.159Z,1017.63
2017-04-04T10:22:00.176Z,1017.55
2017-04-04T10:32:00.170Z,1017.52
2017-04-04T10:42:00.333Z,1017.53
2017-04-04T10:52:00.162Z,1017.55
2017-04-04T11:02:00.160Z,1017.52
2017-04-04T11:12:00.173Z,1017.43
2017-04-04T11:22:00.170Z,1017.23
2017-04-04T11:32:00.169Z,1017.25
2017-04-04T11:42:00.156Z,1017.23
2017-04-04T11:52:00.176Z,1017.23
2017-04-04T12:02:00.170Z,1017.08
2017-04-04T12:12:00.165Z,1017
2017-04-04T12:22:00.164Z,1016.98
2017-04-04T12:32:00.159Z,1016.91
2017-04-04T12:42:00.164Z,1016.87
2017-04-04T12:52:00.222Z,1016.78
2017-04-04T13:02:00.166Z,1016.74
2017-04-04T13:12:00.159Z,1016.82
2017-04-04T13:22:00.155Z,1016.69
2017-04-04T13:32:00.169Z,1016.53
2017-04-04T13:42:00.221Z,1016.46
2017-04-04T13:52:00.161Z,1016.45
2017-04-04T14:02:00.170Z,1016.41
2017-04-04T14:12:00.157Z,1016.36
2017-04-04T14:22:00.170Z,1016.25
2017-04-04T14:32:00.159Z,1016.18
2017-04-04T14:42:00.171Z,1016.12
2017-04-04T14:52:00.176Z,1016.03
2017-04-04T15:02:00.168Z,1015.99
2017-04-04T15:12:00.169Z,1016.05
2017-04-04T15:22:00.179Z,1016.09
2017-04-04T15:32:00.166Z,1016.04
2017-04-04T15:42:00.163Z,1016.06
2017-04-04T15:52:00.172Z,1016.07
2017-04-04T16:02:00.167Z,1016.05
2017-04-04T16:12:00.172Z,1016.15
2017-04-04T16:22:00.174Z,1016.06
2017-04-04T16:32:00.176Z,1016.09
2017-04-04T16:42:00.179Z,1016.11
2017-04-04T16:52:00.174Z,1016.12
2017-04-04T17:02:00.171Z,1016.09
2017-04-04T17:12:00.178Z,1016.16
2017-04-04T17:22:00.190Z,1016.13
2017-04-04T17:32:00.177Z,1016.13
2017-04-04T17:42:00.216Z,1016.15
2017-04-04T17:52:00.171Z,1016.29
2017-04-04T18:02:00.174Z,1016.36
2017-04-04T18:12:00.177Z,1016.38
2017-04-04T18:22:00.169Z,1016.45
2017-04-04T18:32:00.172Z,1016.56
2017-04-04T18:42:00.176Z,1016.66
2017-04-04T18:52:00.182Z,1016.8
2017-04-04T19:02:00.177Z,1016.87
2017-04-04T19:12:00.172Z,1016.82
2017-04-04T19:22:00.180Z,1016.9
2017-04-04T19:32:00.202Z,1016.85
2017-04-04T19:42:00.174Z,1016.98
2017-04-04T19:52:00.165Z,1017.07
2017-04-04T20:02:00.162Z,1017.11
2017-04-04T20:12:00.154Z,1017.17
2017-04-04T20:22:00.228Z,1017.2
2017-04-04T20:32:00.160Z,1017.18
2017-04-04T20:42:00.152Z,1017.16
2017-04-04T20:52:00.150Z,1017.27
2017-04-04T21:02:00.156Z,1017.26
2017-04-04T21:12:00.157Z,1017.33
2017-04-04T21:22:00.156Z,1017.38
2017-04-04T21:32:00.153Z,1017.35
2017-04-04T21:42:00.136Z,1017.39
2017-04-04T21:52:00.138Z,1017.43
2017-04-04T22:02:00.139Z,1017.48
2017-04-04T22:12:00.206Z,1017.51
2017-04-04T22:22:00.130Z,1017.55
2017-04-04T22:32:00.133Z,1017.5
2017-04-04T22:42:00.146Z,1017.48
2017-04-04T22:52:00.137Z,1017.61
2017-04-04T23:02:00.125Z,1017.62
2017-04-04T23:12:00.136Z,1017.51
2017-04-04T23:22:00.132Z,1017.55
2017-04-04T23:32:00.126Z,1017.56
2017-04-04T23:42:00.149Z,1017.54
2017-04-04T23:52:00.119Z,1017.54
